createdAt,value
2022-12-11T00:00:30.056Z,98323.84
2022-12-11T00:02:59.696Z,98342.75
2022-12-11T00:05:26.758Z,98366.91
2022-12-11T00:07:58.835Z,98390.00
2022-12-11T00:10:30.198Z,98379.34
2022-12-11T00:12:58.565Z,98355.94
2022-12-11T00:15:28.172Z,98247.72
2022-12-11T00:18:00.296Z,98288.41
2022-12-11T00:20:31.659Z,98377.09
2022-12-11T00:23:00.065Z,98353.59
2022-12-11T00:25:27.578Z,98422.94
2022-12-11T00:27:54.558Z,98407.81
2022-12-11T00:30:26.406Z,98369.16
2022-12-11T00:32:54.343Z,98414.97
2022-12-11T00:35:28.414Z,98402.72
2022-12-11T00:37:55.531Z,98395.56
2022-12-11T00:40:24.526Z,98358.66
2022-12-11T00:43:02.519Z,98291.56
2022-12-11T00:45:32.181Z,98414.03
2022-12-11T00:48:03.729Z,98354.03
2022-12-11T00:50:30.824Z,98419.59
2022-12-11T00:53:13.864Z,98338.31
2022-12-11T00:55:52.656Z,98291.25
2022-12-11T00:58:21.010Z,98403.22
2022-12-11T01:00:49.882Z,98360.28
2022-12-11T01:03:17.935Z,98416.25
2022-12-11T01:05:55.211Z,98400.63
2022-12-11T01:08:23.849Z,98413.66
2022-12-11T01:10:53.841Z,98386.97
2022-12-11T01:13:24.395Z,98458.41
2022-12-11T01:15:53.617Z,98424.19
2022-12-11T01:18:26.528Z,98335.28
2022-12-11T01:20:53.725Z,98416.88
2022-12-11T01:23:23.396Z,98215.13
2022-12-11T01:25:54.705Z,98425.47
2022-12-11T01:28:24.120Z,98348.94
2022-12-11T01:30:57.587Z,98234.97
2022-12-11T01:33:28.680Z,98238.22
2022-12-11T01:35:56.412Z,98364.84
2022-12-11T01:38:23.849Z,98224.25
2022-12-11T01:41:07.401Z,98325.13
2022-12-11T01:43:34.907Z,98171.16
2022-12-11T01:46:02.146Z,98338.47
2022-12-11T01:48:42.313Z,98304.72
2022-12-11T01:51:09.705Z,98202.25
2022-12-11T01:54:02.615Z,98414.06
2022-12-11T01:56:37.432Z,98336.56
2022-12-11T01:59:09.251Z,98328.75
2022-12-11T02:02:10.854Z,98427.78
2022-12-11T02:04:40.094Z,98305.69
2022-12-11T02:07:08.546Z,98186.38
2022-12-11T02:09:40.719Z,98406.63
2022-12-11T02:12:51.055Z,98186.03
2022-12-11T02:15:47.267Z,98346.81
2022-12-11T02:18:30.413Z,98232.56
2022-12-11T02:21:20.950Z,98471.25
2022-12-11T02:24:12.954Z,98403.59
2022-12-11T02:27:05.517Z,98419.66
2022-12-11T02:29:53.947Z,98369.56
2022-12-11T02:32:42.972Z,98410.88
2022-12-11T02:35:33.418Z,98408.00
2022-12-11T02:38:44.081Z,98225.03
2022-12-11T02:41:19.830Z,98197.34
2022-12-11T02:43:50.485Z,98274.31
2022-12-11T02:46:22.839Z,98431.69
2022-12-11T02:48:53.102Z,98217.88
2022-12-11T02:51:40.884Z,98285.84
2022-12-11T02:54:22.489Z,98439.63
2022-12-11T03:01:21.066Z,98283.91
2022-12-11T03:03:53.978Z,98235.41
2022-12-11T03:06:27.723Z,98367.06
2022-12-11T03:09:01.217Z,98258.03
2022-12-11T03:11:30.728Z,98362.91
2022-12-11T03:13:58.636Z,98452.03
2022-12-11T03:16:55.145Z,98387.13
2022-12-11T03:19:36.650Z,98210.50
2022-12-11T03:22:17.528Z,98128.91
2022-12-11T03:25:03.644Z,98164.22
2022-12-11T03:27:42.521Z,98246.78
2022-12-11T03:30:37.243Z,98253.28
2022-12-11T03:33:15.623Z,98456.34
2022-12-11T03:35:59.477Z,98486.81
2022-12-11T03:38:52.355Z,98391.97
2022-12-11T03:41:28.707Z,98161.63
2022-12-11T03:44:08.429Z,98288.66
2022-12-11T03:46:48.618Z,98466.59
2022-12-11T03:49:21.098Z,98466.00
2022-12-11T03:51:58.242Z,98456.19
2022-12-11T03:54:41.258Z,98247.25
2022-12-11T03:57:13.330Z,98432.66
2022-12-11T03:59:40.453Z,98474.09
2022-12-11T04:02:11.023Z,98450.75
2022-12-11T04:04:43.307Z,98348.03
2022-12-11T04:07:15.961Z,98463.28
2022-12-11T04:09:43.370Z,98285.91
2022-12-11T04:12:14.889Z,98475.56
2022-12-11T04:15:03.451Z,98449.69
2022-12-11T04:21:02.212Z,98463.88
2022-12-11T04:23:56.326Z,98313.31
2022-12-11T04:26:24.562Z,98269.66
2022-12-11T04:28:51.887Z,98384.03
2022-12-11T04:31:24.128Z,98406.63
2022-12-11T04:33:51.315Z,98280.34
2022-12-11T04:36:26.506Z,98431.91
2022-12-11T04:39:06.754Z,98416.63
2022-12-11T04:41:38.812Z,98382.34
2022-12-11T04:44:14.763Z,98467.03
2022-12-11T04:46:44.700Z,98391.50
2022-12-11T04:49:12.540Z,98375.78
2022-12-11T04:51:42.105Z,98370.19
2022-12-11T04:54:09.149Z,98468.00
2022-12-11T04:56:43.078Z,98434.63
2022-12-11T04:59:10.205Z,98406.97
2022-12-11T05:01:40.096Z,98425.09
2022-12-11T05:04:10.178Z,98394.06
2022-12-11T05:06:49.850Z,98464.53
2022-12-11T05:09:17.883Z,98438.06
2022-12-11T05:11:46.585Z,98462.59
2022-12-11T05:14:19.290Z,98280.88
2022-12-11T05:16:49.635Z,98367.44
2022-12-11T05:19:21.249Z,98492.16
2022-12-11T05:21:58.197Z,98476.00
2022-12-11T05:24:28.824Z,98291.50
2022-12-11T05:27:06.437Z,98298.16
2022-12-11T05:29:33.442Z,98329.66
2022-12-11T05:32:25.916Z,98365.50
2022-12-11T05:34:57.362Z,98461.38
2022-12-11T05:37:26.863Z,98382.63
2022-12-11T05:39:56.419Z,98366.44
2022-12-11T05:42:29.672Z,98357.78
2022-12-11T05:45:01.599Z,98333.66
2022-12-11T05:47:33.463Z,98464.06
2022-12-11T05:50:05.814Z,98239.16
2022-12-11T05:52:37.730Z,98313.69
2022-12-11T05:55:11.095Z,98316.06
2022-12-11T05:57:43.296Z,98449.63
2022-12-11T06:00:15.937Z,98361.72
2022-12-11T06:02:47.756Z,98369.00
2022-12-11T06:05:17.150Z,98416.97
2022-12-11T06:07:46.176Z,98385.19
2022-12-11T06:10:15.824Z,98205.56
2022-12-11T06:12:44.752Z,98408.34
2022-12-11T06:15:16.631Z,98439.28
2022-12-11T06:17:43.916Z,98379.72
2022-12-11T06:20:21.249Z,98316.47
2022-12-11T06:22:50.947Z,98361.09
2022-12-11T06:25:18.684Z,98329.72
2022-12-11T06:27:47.389Z,98361.78
2022-12-11T06:30:17.084Z,98356.50
2022-12-11T06:32:44.932Z,98374.34
2022-12-11T06:35:12.496Z,98392.34
2022-12-11T06:37:43.073Z,98424.75
2022-12-11T06:40:14.603Z,98381.72
2022-12-11T06:42:45.420Z,98399.53
2022-12-11T06:45:25.537Z,98403.38
2022-12-11T06:47:58.604Z,98358.91
2022-12-11T06:50:30.241Z,98391.63
2022-12-11T06:53:04.344Z,98430.31
2022-12-11T06:55:36.994Z,98398.03
2022-12-11T06:58:10.127Z,98464.41
2022-12-11T07:00:42.867Z,98488.44
2022-12-11T07:03:13.844Z,98371.53
2022-12-11T07:05:43.025Z,98433.84
2022-12-11T07:08:11.428Z,98421.47
2022-12-11T07:10:44.297Z,98392.63
2022-12-11T07:13:11.540Z,98371.66
2022-12-11T07:15:40.571Z,98436.25
2022-12-11T07:18:10.141Z,98400.47
2022-12-11T07:20:39.700Z,98381.03
2022-12-11T07:23:12.142Z,98417.78
2022-12-11T07:25:39.096Z,98451.66
2022-12-11T07:28:16.505Z,98349.72
2022-12-11T07:30:43.881Z,98413.75
2022-12-11T07:33:10.980Z,98487.00
2022-12-11T07:35:38.456Z,98472.19
2022-12-11T07:38:10.938Z,98401.09
2022-12-11T07:40:42.633Z,98502.94
2022-12-11T07:43:10.771Z,98468.88
2022-12-11T07:45:50.790Z,98438.16
2022-12-11T07:48:18.278Z,98427.34
2022-12-11T07:50:45.443Z,98462.81
2022-12-11T07:53:15.758Z,98434.22
2022-12-11T07:55:43.834Z,98490.19
2022-12-11T07:58:11.024Z,98469.06
2022-12-11T08:00:37.927Z,98477.66
2022-12-11T08:03:08.961Z,98456.81
2022-12-11T08:05:38.058Z,98430.88
2022-12-11T08:08:11.150Z,98444.09
2022-12-11T08:10:38.589Z,98427.22
2022-12-11T08:13:10.958Z,98457.28
2022-12-11T08:15:38.592Z,98491.06
2022-12-11T08:18:06.117Z,98448.72
2022-12-11T08:20:33.704Z,98414.97
2022-12-11T08:23:00.818Z,98472.09
2022-12-11T08:25:32.873Z,98472.25
2022-12-11T08:28:04.800Z,98486.91
2022-12-11T08:30:35.161Z,98404.94
2022-12-11T08:33:02.369Z,98515.88
2022-12-11T08:35:29.298Z,98501.88
2022-12-11T08:37:58.341Z,98533.06
2022-12-11T08:40:30.868Z,98502.19
2022-12-11T08:43:00.146Z,98507.28
2022-12-11T08:45:27.460Z,98421.81
2022-12-11T08:47:54.426Z,98424.22
2022-12-11T08:50:21.533Z,98444.41
2022-12-11T08:52:48.467Z,98471.63
2022-12-11T08:55:17.872Z,98393.19
2022-12-11T08:57:56.273Z,98397.31
2022-12-11T09:00:24.005Z,98333.69
2022-12-11T09:02:51.254Z,98425.44
2022-12-11T09:05:18.611Z,98484.34
2022-12-11T09:07:49.151Z,98363.28
2022-12-11T09:10:17.419Z,98369.81
2022-12-11T09:12:45.069Z,98394.59
2022-12-11T09:15:13.514Z,98349.91
2022-12-11T09:17:45.466Z,98449.50
2022-12-11T09:20:17.915Z,98421.78
2022-12-11T09:22:51.455Z,98529.41
2022-12-11T09:25:21.598Z,98465.41
2022-12-11T09:27:48.500Z,98419.44
2022-12-11T09:30:18.109Z,98428.66
2022-12-11T09:32:46.229Z,98483.09
2022-12-11T09:35:16.508Z,98419.91
2022-12-11T09:37:43.576Z,98470.69
2022-12-11T09:40:16.932Z,98416.22
2022-12-11T09:43:27.908Z,98498.38
2022-12-11T09:45:56.431Z,98520.59
2022-12-11T09:48:27.260Z,98409.19
2022-12-11T09:50:55.822Z,98424.03
2022-12-11T09:53:34.708Z,98424.81
2022-12-11T09:56:40.012Z,98386.97
2022-12-11T09:59:33.705Z,98419.91
2022-12-11T10:02:17.900Z,98394.91
2022-12-11T10:05:37.706Z,98367.22
2022-12-11T10:08:50.948Z,98437.06
2022-12-11T10:11:49.243Z,98379.72
2022-12-11T10:14:48.011Z,98504.44
2022-12-11T10:17:29.100Z,98314.22
2022-12-11T10:20:03.634Z,98426.69
2022-12-11T10:22:32.884Z,98381.53
2022-12-11T10:25:15.350Z,98327.78
2022-12-11T10:27:46.394Z,98403.66
2022-12-11T10:30:29.317Z,98382.47
2022-12-11T10:33:22.095Z,98346.16
2022-12-11T10:36:00.121Z,98454.97
2022-12-11T10:38:33.094Z,98390.44
2022-12-11T10:41:21.284Z,98392.88
2022-12-11T10:43:52.022Z,98468.38
2022-12-11T10:46:24.653Z,98453.50
2022-12-11T10:48:55.465Z,98469.91
2022-12-11T10:51:31.948Z,98378.53
2022-12-11T10:54:30.088Z,98450.03
2022-12-11T10:56:58.224Z,98479.63
2022-12-11T11:00:02.276Z,98441.94
2022-12-11T11:02:42.180Z,98447.88
2022-12-11T11:05:34.138Z,98430.81
2022-12-11T11:08:25.131Z,98386.34
2022-12-11T11:11:01.299Z,98448.69
2022-12-11T11:13:33.738Z,98470.94
2022-12-11T11:16:05.848Z,98362.72
2022-12-11T11:18:34.677Z,98402.81
2022-12-11T11:21:02.306Z,98400.34
2022-12-11T11:23:32.089Z,98418.78
2022-12-11T11:26:02.528Z,98337.00
2022-12-11T11:28:42.468Z,98367.59
2022-12-11T11:31:13.824Z,98415.38
2022-12-11T11:34:04.188Z,98363.84
2022-12-11T11:36:35.566Z,98352.84
2022-12-11T11:39:34.000Z,98343.66
2022-12-11T11:42:19.112Z,98387.78
2022-12-11T11:45:18.321Z,98310.63
2022-12-11T11:48:11.482Z,98465.88
2022-12-11T11:50:53.461Z,98360.41
2022-12-11T11:53:37.918Z,98263.91
2022-12-11T11:56:21.477Z,98397.41
2022-12-11T11:59:02.996Z,98413.59
2022-12-11T12:01:30.434Z,98351.69
2022-12-11T12:04:00.693Z,98381.53
2022-12-11T12:07:01.602Z,98419.69
2022-12-11T12:09:31.142Z,98307.50
2022-12-11T12:12:42.114Z,98324.44
2022-12-11T12:15:32.067Z,98404.56
2022-12-11T12:18:58.465Z,98419.69
2022-12-11T12:21:41.517Z,98438.09
2022-12-11T12:24:38.657Z,98404.66
2022-12-11T12:27:52.810Z,98430.38
2022-12-11T12:30:23.717Z,98347.81
2022-12-11T12:32:59.312Z,98432.59
2022-12-11T12:35:38.692Z,98465.53
2022-12-11T12:38:39.147Z,98437.47
2022-12-11T12:41:14.226Z,98361.69
2022-12-11T12:43:59.479Z,98420.06
2022-12-11T12:47:19.288Z,98464.38
2022-12-11T12:49:53.179Z,98457.22
2022-12-11T12:52:37.870Z,98461.91
2022-12-11T12:55:29.020Z,98403.63
2022-12-11T12:58:02.243Z,98415.31
2022-12-11T13:00:52.361Z,98317.44
2022-12-11T13:03:26.925Z,98369.03
2022-12-11T13:06:12.013Z,98363.81
2022-12-11T13:08:50.157Z,98437.06
2022-12-11T13:11:21.299Z,98433.72
2022-12-11T13:14:22.009Z,98431.44
2022-12-11T13:17:06.235Z,98400.75
2022-12-11T13:19:40.665Z,98443.66
2022-12-11T13:22:12.904Z,98302.63
2022-12-11T13:25:01.527Z,98313.47
2022-12-11T13:27:43.572Z,98343.94
2022-12-11T13:30:19.787Z,98460.31
2022-12-11T13:33:03.244Z,98449.06
2022-12-11T13:35:35.553Z,98371.50
2022-12-11T13:38:22.775Z,98407.25
2022-12-11T13:41:00.251Z,98444.03
2022-12-11T13:43:35.548Z,98378.53
2022-12-11T13:46:07.144Z,98394.13
2022-12-11T13:48:51.228Z,98413.50
2022-12-11T13:51:24.341Z,98417.03
2022-12-11T13:54:22.369Z,98425.00
2022-12-11T13:56:59.957Z,98409.72
2022-12-11T13:59:34.534Z,98402.38
2022-12-11T14:02:20.197Z,98392.16
2022-12-11T14:04:52.671Z,98428.22
2022-12-11T14:07:33.414Z,98458.75
2022-12-11T14:10:21.223Z,98425.00
2022-12-11T14:13:28.573Z,98397.91
2022-12-11T14:15:56.132Z,98353.66
2022-12-11T14:18:32.286Z,98471.84
2022-12-11T14:21:06.100Z,98404.47
2022-12-11T14:23:39.053Z,98423.78
2022-12-11T14:26:27.020Z,98380.22
2022-12-11T14:28:54.429Z,98384.63
2022-12-11T14:31:40.893Z,98359.28
2022-12-11T14:34:21.490Z,98236.22
2022-12-11T14:36:54.527Z,98416.97
2022-12-11T14:39:47.617Z,98264.34
2022-12-11T14:42:24.706Z,98350.44
2022-12-11T14:45:37.706Z,98249.41
2022-12-11T14:48:17.997Z,98398.09
2022-12-11T14:50:51.555Z,98256.69
2022-12-11T14:53:29.833Z,98244.44
2022-12-11T14:56:05.709Z,98257.75
2022-12-11T14:58:42.697Z,98275.56
2022-12-11T15:01:29.405Z,98322.63
2022-12-11T15:04:27.965Z,98294.38
2022-12-11T15:06:58.430Z,98176.47
2022-12-11T15:09:36.811Z,98170.47
2022-12-11T15:12:16.563Z,98243.66
2022-12-11T15:14:52.631Z,98231.47
2022-12-11T15:17:23.815Z,98289.31
2022-12-11T15:20:22.671Z,98360.84
2022-12-11T15:22:50.157Z,98274.50
2022-12-11T15:25:26.166Z,98191.72
2022-12-11T15:27:59.824Z,98231.00
2022-12-11T15:30:34.615Z,98246.03
2022-12-11T15:33:29.643Z,98226.09
2022-12-11T15:36:06.171Z,98302.03
2022-12-11T15:38:42.009Z,98222.56
2022-12-11T15:41:20.936Z,98166.78
2022-12-11T15:43:48.157Z,98235.94
2022-12-11T15:46:17.456Z,98247.88
2022-12-11T15:48:50.298Z,98206.88
2022-12-11T15:51:19.771Z,98193.53
2022-12-11T15:53:46.967Z,98310.63
2022-12-11T15:56:16.500Z,98337.00
2022-12-11T15:58:47.124Z,98214.94
2022-12-11T16:01:14.200Z,98117.56
2022-12-11T16:03:46.715Z,98294.41
2022-12-11T16:06:18.512Z,98160.94
2022-12-11T16:08:50.597Z,98233.25
2022-12-11T16:11:18.732Z,98210.38
2022-12-11T16:13:47.604Z,98189.88
2022-12-11T16:16:14.613Z,98295.06
2022-12-11T16:18:46.621Z,98323.50
2022-12-11T16:21:18.189Z,98271.50
2022-12-11T16:23:51.261Z,98151.72
2022-12-11T16:26:18.228Z,98122.25
2022-12-11T16:28:45.539Z,98277.41
2022-12-11T16:31:20.770Z,98319.22
2022-12-11T16:33:47.907Z,98327.47
2022-12-11T16:36:20.738Z,98245.75
2022-12-11T16:38:55.044Z,98075.22
2022-12-11T16:41:24.133Z,98050.47
2022-12-11T16:43:54.282Z,98302.03
2022-12-11T16:46:26.589Z,98312.22
2022-12-11T16:48:56.285Z,98321.28
2022-12-11T16:51:43.216Z,98164.78
2022-12-11T16:54:13.538Z,98247.69
2022-12-11T16:56:40.531Z,98103.63
2022-12-11T16:59:08.022Z,98215.94
2022-12-11T17:01:35.182Z,98018.25
2022-12-11T17:04:07.299Z,98088.53
2022-12-11T17:06:36.294Z,98143.94
2022-12-11T17:09:09.466Z,98124.41
2022-12-11T17:11:37.611Z,98167.59
2022-12-11T17:14:09.395Z,98093.59
2022-12-11T17:16:41.649Z,98189.88
2022-12-11T17:19:13.223Z,97990.47
2022-12-11T17:21:51.178Z,98112.03
2022-12-11T17:24:20.913Z,98159.84
2022-12-11T17:26:50.392Z,98314.22
2022-12-11T17:29:18.759Z,98131.91
2022-12-11T17:31:48.390Z,97953.84
2022-12-11T17:34:17.319Z,98097.31
2022-12-11T17:36:51.981Z,98269.56
2022-12-11T17:39:18.923Z,98232.75
2022-12-11T17:41:48.825Z,97957.63
2022-12-11T17:44:18.316Z,98002.59
2022-12-11T17:46:53.980Z,98184.09
2022-12-11T17:49:24.626Z,98091.03
2022-12-11T17:51:53.150Z,98292.22
2022-12-11T17:54:21.309Z,97989.44
2022-12-11T17:56:51.228Z,98034.63
2022-12-11T17:59:29.575Z,97890.25
2022-12-11T18:02:00.869Z,98256.81
2022-12-11T18:04:40.892Z,98000.75
2022-12-11T18:07:17.824Z,97943.25
2022-12-11T18:09:50.021Z,97926.34
2022-12-11T18:12:16.968Z,98135.91
2022-12-11T18:14:51.075Z,98094.44
2022-12-11T18:17:28.242Z,98203.25
2022-12-11T18:20:28.235Z,98099.22
2022-12-11T18:22:53.531Z,97976.47
2022-12-11T18:25:30.026Z,97844.06
2022-12-11T18:28:09.971Z,97989.41
2022-12-11T18:30:39.290Z,97889.47
2022-12-11T18:33:08.579Z,97889.66
2022-12-11T18:35:39.166Z,98053.19
2022-12-11T18:38:12.485Z,98039.94
2022-12-11T18:40:43.477Z,98145.44
2022-12-11T18:43:11.149Z,98249.31
2022-12-11T18:45:48.311Z,98033.28
2022-12-11T18:48:18.698Z,98019.78
2022-12-11T18:50:50.129Z,98103.00
2022-12-11T18:53:20.988Z,98282.94
2022-12-11T18:55:57.090Z,98043.56
2022-12-11T18:58:31.805Z,98021.13
2022-12-11T19:01:05.639Z,98230.19
2022-12-11T19:03:38.677Z,98144.03
2022-12-11T19:06:20.126Z,98224.88
2022-12-11T19:08:55.868Z,97884.94
2022-12-11T19:11:30.842Z,97970.78
2022-12-11T19:14:10.419Z,98199.47
2022-12-11T19:16:45.982Z,98078.03
2022-12-11T19:19:18.904Z,98056.25
2022-12-11T19:21:51.539Z,98113.06
2022-12-11T19:24:28.278Z,98004.75
2022-12-11T19:27:13.094Z,98122.00
2022-12-11T19:29:50.011Z,98065.25
2022-12-11T19:32:23.082Z,98038.81
2022-12-11T19:34:54.870Z,97916.38
2022-12-11T19:37:28.097Z,97969.19
2022-12-11T19:39:58.017Z,97952.47
2022-12-11T19:42:34.846Z,97868.28
2022-12-11T19:45:04.903Z,98149.88
2022-12-11T19:47:38.706Z,98055.16
2022-12-11T19:50:10.603Z,97969.25
2022-12-11T19:52:46.176Z,97883.97
2022-12-11T19:55:17.906Z,97832.06
2022-12-11T19:57:49.377Z,98061.75
2022-12-11T20:00:26.968Z,98086.84
2022-12-11T20:03:05.262Z,98107.63
2022-12-11T20:05:37.480Z,98255.88
2022-12-11T20:11:05.985Z,97942.72
2022-12-11T20:13:46.456Z,97949.97
2022-12-11T20:16:33.397Z,97948.41
2022-12-11T20:19:08.286Z,97910.94
2022-12-11T20:21:50.524Z,98015.22
2022-12-11T20:24:19.690Z,98124.44
2022-12-11T20:26:49.343Z,98303.94
2022-12-11T20:29:18.672Z,98038.38
2022-12-11T20:32:03.711Z,98090.78
2022-12-11T20:34:35.554Z,98125.38
2022-12-11T20:37:04.939Z,98179.88
2022-12-11T20:39:41.609Z,98063.31
2022-12-11T20:42:13.372Z,98208.81
2022-12-11T20:44:54.403Z,97934.28
2022-12-11T20:47:31.486Z,98035.59
2022-12-11T20:50:02.720Z,97916.41
2022-12-11T20:52:29.769Z,98066.31
2022-12-11T20:55:07.810Z,98043.84
2022-12-11T20:57:45.274Z,98059.25
2022-12-11T21:00:22.913Z,98084.22
2022-12-11T21:02:54.777Z,98113.56
2022-12-11T21:05:26.360Z,97961.56
2022-12-11T21:08:05.548Z,98074.50
2022-12-11T21:10:41.481Z,97985.75
2022-12-11T21:13:13.054Z,98059.75
2022-12-11T21:15:53.924Z,97822.44
2022-12-11T21:18:26.790Z,97835.94
2022-12-11T21:21:14.929Z,97935.69
2022-12-11T21:23:51.159Z,97966.31
2022-12-11T21:26:24.764Z,97984.88
2022-12-11T21:28:58.356Z,98031.13
2022-12-11T21:31:39.816Z,97981.41
2022-12-11T21:34:10.250Z,98074.88
2022-12-11T21:36:40.216Z,98056.06
2022-12-11T21:39:22.775Z,97931.13
2022-12-11T21:41:56.269Z,97996.72
2022-12-11T21:47:37.603Z,98035.66
2022-12-11T21:50:10.387Z,97929.34
2022-12-11T21:52:44.542Z,97975.22
2022-12-11T21:55:28.179Z,98001.28
2022-12-11T21:58:10.405Z,98294.34
2022-12-11T22:00:41.047Z,98143.94
2022-12-11T22:03:08.240Z,98152.06
2022-12-11T22:05:54.374Z,98052.00
2022-12-11T22:08:36.996Z,98220.94
2022-12-11T22:11:09.609Z,97931.72
2022-12-11T22:13:49.250Z,97984.19
2022-12-11T22:16:45.999Z,97933.13
2022-12-11T22:19:17.010Z,98046.53
2022-12-11T22:21:53.740Z,98275.69
2022-12-11T22:24:31.431Z,98001.50
2022-12-11T22:27:03.163Z,98079.06
2022-12-11T22:29:39.405Z,98174.56
2022-12-11T22:32:17.424Z,98307.50
2022-12-11T22:34:48.537Z,98052.41
2022-12-11T22:37:18.784Z,98144.22
2022-12-11T22:39:53.073Z,98312.97
2022-12-11T22:42:40.417Z,98257.00
2022-12-11T22:45:17.334Z,98207.22
2022-12-11T22:47:44.489Z,98192.19
2022-12-11T22:50:23.467Z,98158.25
2022-12-11T22:52:57.547Z,98045.09
2022-12-11T22:55:33.553Z,98177.16
2022-12-11T22:58:06.012Z,98062.94
2022-12-11T23:00:39.996Z,98274.75
2022-12-11T23:03:20.320Z,98233.13
2022-12-11T23:06:05.127Z,98162.22
2022-12-11T23:08:43.841Z,98170.06
2022-12-11T23:11:38.915Z,98296.13
2022-12-11T23:14:18.088Z,98159.00
2022-12-11T23:16:49.180Z,98238.69
2022-12-11T23:19:25.120Z,98298.34
2022-12-11T23:22:13.132Z,98313.34
2022-12-11T23:24:48.073Z,98281.13
2022-12-11T23:27:20.446Z,98177.63
2022-12-11T23:29:56.193Z,98209.38
2022-12-11T23:32:24.707Z,98216.72
2022-12-11T23:34:56.975Z,98313.34
2022-12-11T23:37:25.305Z,98279.06
2022-12-11T23:39:54.730Z,98217.13
2022-12-11T23:42:28.464Z,98010.75
2022-12-11T23:44:59.088Z,98119.25
2022-12-11T23:47:26.242Z,98286.09
2022-12-11T23:50:02.236Z,98218.91
2022-12-11T23:52:29.522Z,98213.53
2022-12-11T23:54:58.896Z,98149.81
2022-12-11T23:57:30.123Z,98043.09
